Time;durP1;ratioP1;P1;durP2;ratioP2;P2;SDS_P1;SDS_P2;PMS_P1;PMS_P2;Temp;Humidity;BMP_temperature;BMP_pressure;BME280_temperature;BME280_humidity;BME280_pressure;Samples;Min_cycle;Max_cycle;Signal;HPM_P1;HPM_P2
2021/09/08 11:39:44;;;;;;;5.20;2.70;;;26.70;98.90;;;;;;6269530;22;20226;-73
2021/09/08 11:42:13;;;;;;;4.20;2.55;;;26.70;98.40;;;;;;6268169;22;20189;-75
2021/09/08 11:44:43;;;;;;;3.83;2.70;;;26.70;99.30;;;;;;6275295;22;20179;-73
2021/09/08 11:47:16;;;;;;;3.83;2.50;;;26.80;98.60;;;;;;6274509;22;20665;-73
2021/09/08 11:49:44;;;;;;;6.43;3.33;;;26.70;98.20;;;;;;6273716;22;20179;-74
2021/09/08 11:52:16;;;;;;;6.25;2.72;;;26.80;98.30;;;;;;6274635;22;20179;-73
2021/09/08 11:54:48;;;;;;;5.30;3.10;;;26.80;98.50;;;;;;6274356;22;20232;-73
2021/09/08 11:57:23;;;;;;;4.55;2.58;;;26.90;98.60;;;;;;6273409;22;20207;-73
2021/09/08 11:59:52;;;;;;;3.90;2.65;;;26.90;98.40;;;;;;6275586;22;20184;-73
2021/09/08 12:02:19;;;;;;;5.00;2.88;;;26.90;97.90;;;;;;6275964;22;20178;-73
2021/09/08 12:04:46;;;;;;;3.45;2.17;;;26.80;97.60;;;;;;6275722;22;20225;-73
2021/09/08 12:07:13;;;;;;;5.40;3.17;;;26.70;97.30;;;;;;6276818;22;20199;-73
2021/09/08 12:09:43;;;;;;;4.15;2.78;;;26.60;97.80;;;;;;6275517;22;20182;-73
2021/09/08 12:12:12;;;;;;;5.15;2.58;;;26.80;99.00;;;;;;6274938;22;20181;-73
2021/09/08 12:14:42;;;;;;;3.78;2.83;;;27.00;97.80;;;;;;6276419;22;20222;-73
2021/09/08 12:17:24;;;;;;;3.70;2.55;;;27.10;98.50;;;;;;6276467;22;20345;-73
2021/09/08 12:19:59;;;;;;;3.88;2.50;;;27.00;97.10;;;;;;6275508;22;20576;-73
2021/09/08 12:22:28;;;;;;;4.68;2.40;;;27.00;97.50;;;;;;6276150;22;20181;-73
2021/09/08 12:24:57;;;;;;;4.47;2.80;;;26.90;97.50;;;;;;6276717;22;20181;-73
2021/09/08 12:27:29;;;;;;;4.78;2.85;;;27.00;97.80;;;;;;6276734;22;20195;-73
2021/09/08 12:29:57;;;;;;;4.05;2.65;;;27.00;97.80;;;;;;6276492;22;20175;-74
2021/09/08 12:32:25;;;;;;;3.92;2.65;;;27.10;97.40;;;;;;6276621;22;20253;-74
2021/09/08 12:34:52;;;;;;;3.70;2.80;;;27.10;97.30;;;;;;6276907;22;20175;-74
2021/09/08 12:37:23;;;;;;;3.05;2.38;;;27.10;97.80;;;;;;6276481;22;20210;-73
2021/09/08 12:39:52;;;;;;;3.60;2.70;;;27.20;96.40;;;;;;6276766;22;20193;-74
2021/09/08 12:42:20;;;;;;;3.35;2.60;;;27.20;96.40;;;;;;6276724;22;20175;-73
2021/09/08 12:44:49;;;;;;;3.65;2.47;;;27.20;96.50;;;;;;6277067;22;20175;-73
2021/09/08 12:47:17;;;;;;;3.63;2.58;;;27.20;97.10;;;;;;6276225;22;20205;-73
2021/09/08 12:49:45;;;;;;;3.92;2.47;;;27.00;97.30;;;;;;6276304;22;20174;-74
2021/09/08 12:52:14;;;;;;;4.65;2.60;;;27.20;97.40;;;;;;6276587;22;20502;-73
2021/09/08 12:54:43;;;;;;;3.67;2.63;;;27.20;97.50;;;;;;6276426;22;20185;-73
2021/09/08 12:57:12;;;;;;;3.33;2.22;;;27.20;96.80;;;;;;6275937;22;20525;-74
2021/09/08 12:59:40;;;;;;;3.97;2.47;;;27.20;97.00;;;;;;6276700;22;20498;-73
2021/09/08 13:02:11;;;;;;;3.00;2.10;;;27.20;97.40;;;;;;6276120;22;20178;-73
2021/09/08 13:04:39;;;;;;;3.63;2.33;;;27.30;98.20;;;;;;6276877;22;20262;-73
2021/09/08 13:07:06;;;;;;;4.05;2.40;;;27.30;97.20;;;;;;6276473;22;20194;-73
2021/09/08 13:09:35;;;;;;;5.22;2.80;;;27.20;97.00;;;;;;6276558;22;20178;-73
2021/09/08 13:12:02;;;;;;;4.10;2.60;;;27.20;97.50;;;;;;6276227;22;20178;-74
2021/09/08 13:14:29;;;;;;;4.53;2.78;;;27.30;97.30;;;;;;6276244;22;20186;-73
2021/09/08 13:16:56;;;;;;;3.80;2.58;;;27.20;96.80;;;;;;6276074;22;20205;-73
2021/09/08 13:19:25;;;;;;;4.03;2.78;;;27.30;97.50;;;;;;6276219;22;20175;-73
2021/09/08 13:21:52;;;;;;;3.70;2.47;;;27.30;96.60;;;;;;6276032;22;20185;-73
2021/09/08 13:24:19;;;;;;;4.88;2.72;;;27.30;97.00;;;;;;6276512;22;20175;-73
2021/09/08 13:26:47;;;;;;;3.92;2.63;;;27.30;97.60;;;;;;6275730;22;20691;-74
2021/09/08 13:29:14;;;;;;;3.65;2.58;;;27.20;96.90;;;;;;6276435;22;20185;-73
2021/09/08 13:31:43;;;;;;;3.80;2.60;;;27.30;96.70;;;;;;6276065;22;20175;-74
2021/09/08 13:34:10;;;;;;;5.47;3.10;;;27.30;97.10;;;;;;6276393;22;20208;-73
2021/09/08 13:36:39;;;;;;;4.28;2.80;;;27.30;97.50;;;;;;6275912;22;20199;-73
2021/09/08 13:39:09;;;;;;;4.55;2.97;;;27.30;96.90;;;;;;6275296;22;20206;-73
2021/09/08 13:41:38;;;;;;;4.05;3.05;;;27.30;97.10;;;;;;6275955;22;20174;-73
2021/09/08 13:44:05;;;;;;;5.78;2.85;;;27.30;96.60;;;;;;6274166;22;20182;-73
2021/09/08 13:46:32;;;;;;;3.75;2.47;;;27.40;96.50;;;;;;6274486;22;20202;-74
2021/09/08 13:48:59;;;;;;;4.88;3.35;;;27.30;96.80;;;;;;6276016;22;20181;-75
2021/09/08 13:51:26;;;;;;;5.28;2.88;;;27.30;96.60;;;;;;6275326;22;20633;-73
2021/09/08 13:53:54;;;;;;;4.35;2.90;;;27.30;96.70;;;;;;6276100;22;20175;-73
2021/09/08 13:56:20;;;;;;;4.15;2.75;;;27.40;96.80;;;;;;6275786;22;20195;-74
2021/09/08 13:58:47;;;;;;;4.40;2.47;;;27.40;96.80;;;;;;6275900;22;20290;-73
2021/09/08 14:01:14;;;;;;;3.20;2.35;;;27.40;97.30;;;;;;6275356;22;20241;-74
2021/09/08 14:03:41;;;;;;;4.00;2.47;;;27.50;95.50;;;;;;6275889;22;20217;-73
2021/09/08 14:06:08;;;;;;;4.60;2.67;;;27.50;95.30;;;;;;6276101;22;20274;-73
2021/09/08 14:08:35;;;;;;;2.88;2.22;;;27.40;95.60;;;;;;6275829;22;20181;-73
2021/09/08 14:11:03;;;;;;;3.65;2.30;;;27.40;94.30;;;;;;6275541;22;20185;-73
2021/09/08 14:13:30;;;;;;;5.60;2.15;;;27.40;94.50;;;;;;6276147;22;20179;-74
2021/09/08 14:15:57;;;;;;;3.50;2.08;;;27.50;94.80;;;;;;6275688;22;20201;-73
2021/09/08 14:18:24;;;;;;;3.10;2.40;;;27.40;94.00;;;;;;6275430;22;20668;-73
2021/09/08 14:20:53;;;;;;;3.63;2.00;;;27.40;93.50;;;;;;6273686;22;20181;-74
2021/09/08 14:23:20;;;;;;;4.50;2.30;;;27.40;92.90;;;;;;6276118;22;20175;-73
2021/09/08 14:25:48;;;;;;;2.60;1.90;;;27.30;92.80;;;;;;6275880;22;20249;-73
2021/09/08 14:28:17;;;;;;;3.63;2.60;;;27.40;93.70;;;;;;6275881;22;20578;-74
2021/09/08 14:30:44;;;;;;;4.15;2.30;;;27.50;93.80;;;;;;6275941;22;20257;-73
2021/09/08 14:33:11;;;;;;;3.78;2.40;;;27.50;92.90;;;;;;6276272;22;20201;-74
2021/09/08 14:35:38;;;;;;;3.47;2.15;;;27.50;93.00;;;;;;6275893;22;20175;-74
2021/09/08 14:38:05;;;;;;;2.67;1.98;;;27.40;93.10;;;;;;6275113;22;20209;-72
2021/09/08 14:40:33;;;;;;;2.90;2.05;;;27.50;93.90;;;;;;6274753;22;20183;-72
2021/09/08 14:43:00;;;;;;;3.03;2.13;;;27.50;93.60;;;;;;6275075;22;20506;-73
2021/09/08 14:45:29;;;;;;;3.30;2.38;;;27.60;94.10;;;;;;6276044;22;20181;-74
2021/09/08 14:47:58;;;;;;;3.30;2.15;;;27.60;94.30;;;;;;6276015;22;20281;-73
2021/09/08 14:50:25;;;;;;;3.15;2.35;;;27.60;93.50;;;;;;6275429;22;20266;-74
2021/09/08 14:52:52;;;;;;;3.35;2.40;;;27.60;93.90;;;;;;6275553;22;20186;-73
2021/09/08 14:55:21;;;;;;;4.00;2.42;;;27.50;93.50;;;;;;6275895;22;20265;-72
2021/09/08 14:57:48;;;;;;;4.43;2.60;;;27.40;93.80;;;;;;6275686;22;20214;-73
2021/09/08 15:00:15;;;;;;;3.95;2.40;;;27.40;93.90;;;;;;6275595;22;20181;-73
2021/09/08 15:02:43;;;;;;;3.85;2.30;;;27.40;93.60;;;;;;6275366;22;20206;-73
2021/09/08 15:05:11;;;;;;;4.78;2.70;;;27.40;93.70;;;;;;6275713;22;20179;-73
2021/09/08 15:07:38;;;;;;;4.35;2.72;;;27.30;93.80;;;;;;6275093;22;20556;-73
2021/09/08 15:10:06;;;;;;;3.88;2.10;;;27.30;93.90;;;;;;6274883;22;20174;-73
2021/09/08 15:12:33;;;;;;;3.58;2.38;;;27.40;94.20;;;;;;6274614;22;20178;-73
2021/09/08 15:15:00;;;;;;;4.03;2.35;;;27.40;93.20;;;;;;6274837;22;20182;-73
2021/09/08 15:17:27;;;;;;;3.50;2.20;;;27.30;93.00;;;;;;6275553;22;20273;-73
2021/09/08 15:19:55;;;;;;;3.17;2.38;;;27.40;92.80;;;;;;6275706;22;20206;-74
2021/09/08 15:22:22;;;;;;;3.42;1.90;;;27.40;92.90;;;;;;6275892;22;20636;-73
2021/09/08 15:24:49;;;;;;;3.72;2.65;;;27.40;93.20;;;;;;6276193;22;20175;-73
2021/09/08 15:27:15;;;;;;;3.53;1.90;;;27.30;92.80;;;;;;6275641;22;20199;-74
2021/09/08 15:29:42;;;;;;;3.75;2.50;;;27.30;93.10;;;;;;6275859;22;20179;-74
2021/09/08 15:32:09;;;;;;;2.67;2.10;;;27.20;93.30;;;;;;6275663;22;20217;-73
2021/09/08 15:34:36;;;;;;;3.60;2.47;;;27.30;93.60;;;;;;6275936;22;20175;-74
2021/09/08 15:37:04;;;;;;;3.42;2.38;;;27.30;93.90;;;;;;6275823;22;20277;-74
2021/09/08 15:39:32;;;;;;;2.88;2.00;;;27.20;94.00;;;;;;6276305;22;20676;-74
2021/09/08 15:41:59;;;;;;;3.70;2.40;;;27.10;93.60;;;;;;6277102;22;20273;-73
2021/09/08 15:44:25;;;;;;;3.83;2.53;;;27.20;93.40;;;;;;6277218;22;20175;-74
2021/09/08 15:46:52;;;;;;;6.68;3.05;;;27.20;93.40;;;;;;6275812;22;20209;-72
2021/09/08 15:49:19;;;;;;;4.15;2.40;;;27.20;93.80;;;;;;6277033;22;20175;-73
2021/09/08 15:51:46;;;;;;;4.32;2.85;;;27.10;93.60;;;;;;6277162;22;20258;-73
2021/09/08 15:54:14;;;;;;;3.10;2.30;;;27.00;93.50;;;;;;6276682;22;20177;-74
2021/09/08 15:56:41;;;;;;;3.25;2.25;;;26.90;94.00;;;;;;6276904;22;20286;-74
2021/09/08 15:59:08;;;;;;;3.15;2.42;;;26.90;93.50;;;;;;6276733;22;20213;-73
2021/09/08 16:01:34;;;;;;;2.78;2.00;;;26.90;93.60;;;;;;6276957;22;20258;-73
2021/09/08 16:04:01;;;;;;;3.25;2.30;;;26.80;93.90;;;;;;6277149;22;20185;-73
2021/09/08 16:06:28;;;;;;;5.40;2.53;;;26.80;93.80;;;;;;6276772;22;20279;-74
2021/09/08 16:08:55;;;;;;;2.78;2.05;;;26.80;93.90;;;;;;6277115;22;20258;-73
2021/09/08 16:11:28;;;;;;;3.40;2.33;;;26.70;94.00;;;;;;6277130;22;20255;-74
2021/09/08 16:13:55;;;;;;;2.90;1.95;;;26.70;93.90;;;;;;6276980;22;20175;-74
2021/09/08 16:16:22;;;;;;;2.92;2.05;;;26.70;94.20;;;;;;6276491;22;20199;-73
2021/09/08 16:18:51;;;;;;;4.43;2.45;;;26.70;93.90;;;;;;6276719;22;20207;-74
2021/09/08 16:21:20;;;;;;;4.07;2.65;;;26.60;93.70;;;;;;6276342;22;20182;-73
2021/09/08 16:23:47;;;;;;;2.75;2.00;;;26.60;93.80;;;;;;6278753;22;20178;-74
2021/09/08 16:26:14;;;;;;;3.53;2.30;;;26.60;93.80;;;;;;6277426;22;20201;-74
2021/09/08 16:28:42;;;;;;;3.88;2.38;;;26.60;93.20;;;;;;6277380;22;20270;-74
2021/09/08 16:31:09;;;;;;;3.28;2.20;;;26.60;93.30;;;;;;6277616;22;20175;-74
2021/09/08 16:33:36;;;;;;;4.32;2.15;;;26.50;92.90;;;;;;6277106;22;20175;-74
2021/09/08 16:36:02;;;;;;;5.72;2.42;;;26.50;93.80;;;;;;6276568;22;20202;-74
2021/09/08 16:38:29;;;;;;;4.13;2.50;;;26.40;93.10;;;;;;6276789;22;20203;-74
2021/09/08 16:40:56;;;;;;;4.10;2.17;;;26.40;93.60;;;;;;6276267;22;20274;-74
2021/09/08 16:43:23;;;;;;;3.30;2.22;;;26.40;94.00;;;;;;6276694;22;20175;-74
2021/09/08 16:45:51;;;;;;;3.22;2.17;;;26.40;94.00;;;;;;6276597;22;20175;-74
2021/09/08 16:48:18;;;;;;;3.10;2.20;;;26.30;94.20;;;;;;6276295;22;20185;-74
2021/09/08 16:50:45;;;;;;;3.70;2.47;;;26.30;94.20;;;;;;6276532;22;20175;-74
2021/09/08 16:53:11;;;;;;;5.10;2.45;;;26.20;94.50;;;;;;6276871;22;20189;-74
2021/09/08 16:55:38;;;;;;;3.42;2.40;;;26.20;94.80;;;;;;6275924;22;20183;-74
2021/09/08 16:58:05;;;;;;;5.22;2.58;;;26.10;94.40;;;;;;6276628;22;20181;-74
2021/09/08 17:00:32;;;;;;;3.17;2.25;;;26.00;95.20;;;;;;6276330;22;20187;-73
2021/09/08 17:03:01;;;;;;;4.65;2.42;;;26.00;95.40;;;;;;6276835;22;20179;-73
2021/09/08 17:05:28;;;;;;;3.85;2.33;;;26.00;95.30;;;;;;6276461;22;20175;-74
2021/09/08 17:07:55;;;;;;;2.95;2.30;;;25.90;94.70;;;;;;6276415;22;20195;-73
2021/09/08 17:10:21;;;;;;;4.78;2.28;;;25.80;95.10;;;;;;6276460;22;20184;-74
2021/09/08 17:12:48;;;;;;;6.45;2.53;;;25.70;95.30;;;;;;6276529;22;20607;-73
2021/09/08 17:15:15;;;;;;;3.83;2.38;;;25.60;95.00;;;;;;6276691;22;20175;-74
2021/09/08 17:17:42;;;;;;;4.40;2.40;;;25.50;95.30;;;;;;6276202;22;20217;-74
2021/09/08 17:20:12;;;;;;;4.00;2.38;;;25.50;96.10;;;;;;6275995;22;20579;-73
2021/09/08 17:22:39;;;;;;;4.53;2.30;;;25.50;95.90;;;;;;6276026;22;20175;-73
2021/09/08 17:25:07;;;;;;;2.35;1.90;;;25.50;96.40;;;;;;6275880;22;20613;-74
2021/09/08 17:27:33;;;;;;;4.25;2.67;;;25.40;96.70;;;;;;6276386;22;20194;-74
2021/09/08 17:30:00;;;;;;;4.43;2.17;;;25.40;96.50;;;;;;6276460;22;20181;-74
2021/09/08 17:32:27;;;;;;;3.45;2.28;;;25.50;97.70;;;;;;6275845;22;20580;-73
2021/09/08 17:34:54;;;;;;;4.63;2.50;;;25.40;97.50;;;;;;6276150;22;20344;-73
2021/09/08 17:37:22;;;;;;;3.80;2.65;;;25.30;97.30;;;;;;6276875;22;20198;-74
2021/09/08 17:39:49;;;;;;;4.32;2.80;;;25.20;98.10;;;;;;6276385;22;20213;-74
2021/09/08 17:42:26;;;;;;;3.67;2.45;;;25.20;99.40;;;;;;6276038;22;20179;-74
2021/09/08 17:44:54;;;;;;;4.70;2.92;;;25.10;99.80;;;;;;6275631;22;20185;-73
2021/09/08 17:47:20;;;;;;;6.20;3.10;;;24.90;99.90;;;;;;6275750;22;20209;-73
2021/09/08 17:49:47;;;;;;;6.20;2.78;;;24.80;99.90;;;;;;6276014;22;20185;-73
2021/09/08 17:52:14;;;;;;;4.03;2.45;;;24.70;99.90;;;;;;6276096;22;20221;-73
2021/09/08 17:54:42;;;;;;;4.85;2.80;;;24.50;99.90;;;;;;6275974;22;20186;-73
2021/09/08 17:57:09;;;;;;;6.50;2.47;;;24.40;99.90;;;;;;6275327;22;20521;-73
2021/09/08 17:59:35;;;;;;;3.97;2.42;;;24.30;99.90;;;;;;6275665;22;20213;-73
2021/09/08 18:02:02;;;;;;;5.63;2.53;;;24.20;99.90;;;;;;6275777;22;20179;-73
2021/09/08 18:04:29;;;;;;;4.85;2.42;;;24.10;99.90;;;;;;6275719;22;20178;-73
2021/09/08 18:06:56;;;;;;;5.22;2.55;;;24.00;99.90;;;;;;6275707;22;20199;-73
2021/09/08 18:09:23;;;;;;;3.20;2.25;;;23.80;99.90;;;;;;6275913;22;20636;-73
2021/09/08 18:11:51;;;;;;;3.95;2.60;;;23.80;99.90;;;;;;6275926;22;20257;-73
2021/09/08 18:14:17;;;;;;;5.18;2.30;;;23.60;99.90;;;;;;6276060;22;20463;-73
2021/09/08 18:16:46;;;;;;;5.28;2.38;;;23.50;99.90;;;;;;6275522;22;20205;-73
2021/09/08 18:19:13;;;;;;;4.45;2.72;;;23.30;99.90;;;;;;6275294;22;20202;-73
2021/09/08 18:21:40;;;;;;;4.65;2.58;;;23.20;99.90;;;;;;6275905;22;20232;-73
2021/09/08 18:24:07;;;;;;;5.57;2.72;;;23.00;99.90;;;;;;6275947;22;20174;-73
2021/09/08 18:26:34;;;;;;;4.80;3.08;;;22.90;99.90;;;;;;6275252;22;20195;-74
2021/09/08 18:29:02;;;;;;;5.82;2.08;;;22.80;99.90;;;;;;6276005;22;20179;-73
2021/09/08 18:31:29;;;;;;;5.25;2.67;;;22.70;99.90;;;;;;6275625;22;20179;-73
2021/09/08 18:33:56;;;;;;;4.22;2.80;;;22.60;99.90;;;;;;6276119;22;20202;-73
2021/09/08 18:36:23;;;;;;;4.55;2.70;;;22.60;99.90;;;;;;6275921;22;20285;-73
2021/09/08 18:38:49;;;;;;;4.40;2.72;;;22.50;99.90;;;;;;6276038;22;20175;-73
2021/09/08 18:41:16;;;;;;;4.05;2.88;;;22.40;99.90;;;;;;6275304;22;20206;-73
2021/09/08 18:43:43;;;;;;;5.55;2.80;;;22.20;99.90;;;;;;6275289;22;20187;-73
2021/09/08 18:46:11;;;;;;;4.70;2.80;;;22.10;99.90;;;;;;6275624;22;20278;-73
2021/09/08 18:48:39;;;;;;;7.53;2.67;;;22.00;99.90;;;;;;6275296;22;20472;-73
2021/09/08 18:51:06;;;;;;;4.28;2.70;;;22.00;99.90;;;;;;6275706;22;20183;-73
2021/09/08 18:53:32;;;;;;;5.22;2.90;;;22.00;99.90;;;;;;6275298;22;20175;-73
2021/09/08 18:55:59;;;;;;;4.47;2.50;;;21.90;99.90;;;;;;6274434;22;20571;-73
2021/09/08 18:58:26;;;;;;;5.20;2.83;;;21.90;99.90;;;;;;6274922;22;20175;-74
2021/09/08 19:00:53;;;;;;;4.80;2.95;;;21.80;99.90;;;;;;6275095;22;20268;-73
2021/09/08 19:03:21;;;;;;;5.07;2.63;;;21.70;99.90;;;;;;6274763;22;20258;-73
2021/09/08 19:05:48;;;;;;;7.45;2.90;;;21.60;99.90;;;;;;6275479;22;20258;-73
2021/09/08 19:08:15;;;;;;;6.72;3.20;;;21.50;99.90;;;;;;6274780;22;20510;-73
2021/09/08 19:10:42;;;;;;;4.88;3.10;;;21.40;99.90;;;;;;6275129;22;20181;-73
2021/09/08 19:13:09;;;;;;;4.00;2.53;;;21.30;99.90;;;;;;6276843;22;20175;-73
2021/09/08 19:15:36;;;;;;;4.47;2.85;;;21.20;99.90;;;;;;6276738;22;20185;-72
2021/09/08 19:18:03;;;;;;;5.25;2.80;;;21.20;99.90;;;;;;6277135;22;20625;-73
2021/09/08 19:20:31;;;;;;;5.20;3.00;;;21.20;99.90;;;;;;6277022;22;20213;-73
2021/09/08 19:22:58;;;;;;;4.88;2.95;;;21.20;99.90;;;;;;6277128;22;20174;-73
2021/09/08 19:25:25;;;;;;;5.60;3.03;;;21.10;99.90;;;;;;6277131;22;20181;-73
2021/09/08 19:27:53;;;;;;;5.65;3.10;;;21.00;99.90;;;;;;6277612;22;20491;-73
2021/09/08 19:30:20;;;;;;;6.22;3.63;;;20.90;99.90;;;;;;6277092;22;20688;-73
2021/09/08 19:32:47;;;;;;;6.60;4.10;;;20.80;99.90;;;;;;6277357;22;20181;-73
2021/09/08 19:35:16;;;;;;;9.10;3.35;;;20.80;99.90;;;;;;6277417;22;20179;-72
2021/09/08 19:37:44;;;;;;;4.90;3.22;;;20.80;99.90;;;;;;6277857;22;20268;-73
2021/09/08 19:40:12;;;;;;;8.43;3.83;;;20.80;99.90;;;;;;6276840;22;20206;-73
2021/09/08 19:42:39;;;;;;;5.63;2.92;;;20.70;99.90;;;;;;6276762;22;20186;-73
2021/09/08 19:45:08;;;;;;;6.93;3.70;;;20.70;99.90;;;;;;6277440;22;20509;-73
2021/09/08 19:47:35;;;;;;;5.93;3.53;;;20.70;99.90;;;;;;6277232;22;20225;-73
2021/09/08 19:50:02;;;;;;;7.70;4.65;;;20.60;99.90;;;;;;6277131;22;20179;-72
2021/09/08 19:52:29;;;;;;;6.15;3.40;;;20.60;99.90;;;;;;6276877;22;20175;-73
2021/09/08 19:54:57;;;;;;;6.80;3.78;;;20.60;99.90;;;;;;6277281;22;20179;-73
2021/09/08 19:57:24;;;;;;;6.25;3.95;;;20.60;99.90;;;;;;6277671;22;20203;-73
2021/09/08 19:59:50;;;;;;;7.60;3.67;;;20.60;99.90;;;;;;6276982;22;20222;-73
2021/09/08 20:02:17;;;;;;;5.63;3.40;;;20.60;99.90;;;;;;6276828;22;20175;-72
2021/09/08 20:04:44;;;;;;;5.78;3.58;;;20.60;99.90;;;;;;6277253;22;20179;-73
2021/09/08 20:07:11;;;;;;;4.47;3.20;;;20.70;99.90;;;;;;6276846;22;20218;-73
2021/09/08 20:09:44;;;;;;;7.55;3.88;;;20.60;99.90;;;;;;6276765;22;20475;-72
2021/09/08 20:12:12;;;;;;;6.82;4.10;;;20.50;99.90;;;;;;6276983;22;20225;-73
2021/09/08 20:14:39;;;;;;;7.65;4.47;;;20.40;99.90;;;;;;6276409;22;20625;-73
2021/09/08 20:17:07;;;;;;;7.22;3.63;;;20.30;99.90;;;;;;6276184;22;20203;-73
2021/09/08 20:19:34;;;;;;;6.35;4.00;;;20.20;99.90;;;;;;6276291;22;20210;-73
2021/09/08 20:22:01;;;;;;;6.60;3.25;;;20.20;99.90;;;;;;6277071;22;20495;-73
2021/09/08 20:24:28;;;;;;;5.15;3.25;;;20.20;99.90;;;;;;6276973;22;20197;-73
2021/09/08 20:26:55;;;;;;;5.55;3.50;;;20.20;99.90;;;;;;6276332;22;20205;-73
2021/09/08 20:29:23;;;;;;;6.20;3.60;;;20.10;99.90;;;;;;6276574;22;20178;-73
2021/09/08 20:31:50;;;;;;;5.90;3.53;;;20.00;99.90;;;;;;6276767;22;20258;-73
2021/09/08 20:34:17;;;;;;;6.18;3.67;;;20.00;99.90;;;;;;6276722;22;20175;-73
2021/09/08 20:36:44;;;;;;;9.05;3.85;;;20.10;99.90;;;;;;6276588;22;20198;-73
2021/09/08 20:39:11;;;;;;;5.60;3.35;;;20.00;99.90;;;;;;6276275;22;20175;-73
2021/09/08 20:41:38;;;;;;;5.40;3.42;;;20.00;99.90;;;;;;6276533;22;20209;-73
2021/09/08 20:44:06;;;;;;;5.22;3.10;;;20.00;99.90;;;;;;6276905;22;20175;-73
2021/09/08 20:46:35;;;;;;;5.15;3.30;;;19.90;99.90;;;;;;6275963;22;20202;-73
2021/09/08 20:49:02;;;;;;;6.95;3.58;;;19.80;99.90;;;;;;6276364;22;20635;-73
2021/09/08 20:51:30;;;;;;;6.00;3.40;;;19.80;99.90;;;;;;6270192;22;20185;-75
2021/09/08 20:53:57;;;;;;;6.53;3.67;;;19.70;99.90;;;;;;6275176;22;20175;-74
